sensor_id;sensor_type;location;lat;lon;timestamp;P1;durP1;ratioP1;P2;durP2;ratioP2
55663;SDS011;41540;57.880;12.164;2022-12-29T03:50:47;0.70;;;0.70;;
55663;SDS011;41540;57.880;12.164;2022-12-29T04:00:49;0.55;;;0.55;;
55663;SDS011;41540;57.880;12.164;2022-12-29T04:10:49;0.40;;;0.40;;
55663;SDS011;41540;57.880;12.164;2022-12-29T04:20:50;1.13;;;0.95;;
55663;SDS011;41540;57.880;12.164;2022-12-29T04:30:59;2.22;;;0.40;;
55663;SDS011;41540;57.880;12.164;2022-12-29T04:41:00;0.40;;;0.40;;
55663;SDS011;41540;57.880;12.164;2022-12-29T04:51:00;0.30;;;0.30;;
55663;SDS011;41540;57.880;12.164;2022-12-29T05:01:01;0.40;;;0.40;;
55663;SDS011;41540;57.880;12.164;2022-12-29T05:11:01;0.70;;;0.70;;
55663;SDS011;41540;57.880;12.164;2022-12-29T05:21:01;0.98;;;0.90;;
55663;SDS011;41540;57.880;12.164;2022-12-29T05:31:02;2.17;;;1.23;;
55663;SDS011;41540;57.880;12.164;2022-12-29T05:41:02;1.50;;;1.40;;
55663;SDS011;41540;57.880;12.164;2022-12-29T05:51:05;1.42;;;1.35;;
55663;SDS011;41540;57.880;12.164;2022-12-29T06:01:05;3.90;;;1.17;;
55663;SDS011;41540;57.880;12.164;2022-12-29T06:11:05;2.20;;;1.30;;
55663;SDS011;41540;57.880;12.164;2022-12-29T06:21:06;4.93;;;1.38;;
55663;SDS011;41540;57.880;12.164;2022-12-29T06:31:08;2.45;;;1.67;;
55663;SDS011;41540;57.880;12.164;2022-12-29T06:41:08;2.50;;;1.95;;
55663;SDS011;41540;57.880;12.164;2022-12-29T06:51:09;5.15;;;2.92;;
55663;SDS011;41540;57.880;12.164;2022-12-29T07:01:09;5.85;;;2.45;;
55663;SDS011;41540;57.880;12.164;2022-12-29T07:11:10;1.58;;;1.45;;
55663;SDS011;41540;57.880;12.164;2022-12-29T07:21:10;1.80;;;1.05;;
55663;SDS011;41540;57.880;12.164;2022-12-29T07:31:15;0.98;;;0.82;;
55663;SDS011;41540;57.880;12.164;2022-12-29T07:41:16;3.53;;;0.82;;
55663;SDS011;41540;57.880;12.164;2022-12-29T07:51:16;1.17;;;1.05;;
55663;SDS011;41540;57.880;12.164;2022-12-29T08:01:17;3.08;;;1.30;;
55663;SDS011;41540;57.880;12.164;2022-12-29T08:11:17;1.83;;;1.73;;
55663;SDS011;41540;57.880;12.164;2022-12-29T08:21:20;4.38;;;1.95;;
55663;SDS011;41540;57.880;12.164;2022-12-29T08:31:20;4.55;;;2.13;;
55663;SDS011;41540;57.880;12.164;2022-12-29T08:41:20;6.95;;;2.28;;
55663;SDS011;41540;57.880;12.164;2022-12-29T08:51:21;8.45;;;4.45;;
55663;SDS011;41540;57.880;12.164;2022-12-29T09:01:21;10.93;;;3.65;;
55663;SDS011;41540;57.880;12.164;2022-12-29T09:11:22;14.52;;;3.13;;
55663;SDS011;41540;57.880;12.164;2022-12-29T09:21:23;11.82;;;3.45;;
55663;SDS011;41540;57.880;12.164;2022-12-29T09:31:23;7.65;;;2.40;;
55663;SDS011;41540;57.880;12.164;2022-12-29T09:41:26;12.80;;;5.97;;
55663;SDS011;41540;57.880;12.164;2022-12-29T09:51:29;8.88;;;4.45;;
55663;SDS011;41540;57.880;12.164;2022-12-29T10:01:36;8.60;;;3.75;;
55663;SDS011;41540;57.880;12.164;2022-12-29T10:12:00;10.95;;;5.65;;
55663;SDS011;41540;57.880;12.164;2022-12-29T10:32:17;2.38;;;1.92;;
55663;SDS011;41540;57.880;12.164;2022-12-29T10:52:21;8.15;;;3.88;;
55663;SDS011;41540;57.880;12.164;2022-12-29T11:12:41;8.52;;;3.65;;
55663;SDS011;41540;57.880;12.164;2022-12-29T11:22:54;9.43;;;5.07;;
55663;SDS011;41540;57.880;12.164;2022-12-29T11:32:54;14.02;;;6.68;;
55663;SDS011;41540;57.880;12.164;2022-12-29T11:42:59;49.90;;;23.77;;
55663;SDS011;41540;57.880;12.164;2022-12-29T11:53:03;12.85;;;5.13;;
55663;SDS011;41540;57.880;12.164;2022-12-29T12:03:13;17.20;;;5.20;;
55663;SDS011;41540;57.880;12.164;2022-12-29T12:13:19;24.50;;;4.03;;
55663;SDS011;41540;57.880;12.164;2022-12-29T12:23:29;16.00;;;5.03;;
55663;SDS011;41540;57.880;12.164;2022-12-29T12:33:37;21.70;;;5.57;;
55663;SDS011;41540;57.880;12.164;2022-12-29T12:53:45;16.50;;;4.55;;
55663;SDS011;41540;57.880;12.164;2022-12-29T13:24:36;18.53;;;5.97;;
55663;SDS011;41540;57.880;12.164;2022-12-29T13:45:00;15.67;;;4.83;;
55663;SDS011;41540;57.880;12.164;2022-12-29T14:15:22;14.80;;;4.80;;
55663;SDS011;41540;57.880;12.164;2022-12-29T14:35:43;26.77;;;6.20;;
55663;SDS011;41540;57.880;12.164;2022-12-29T14:45:47;16.05;;;4.03;;
55663;SDS011;41540;57.880;12.164;2022-12-29T14:55:54;20.48;;;6.15;;
55663;SDS011;41540;57.880;12.164;2022-12-29T15:06:04;34.30;;;7.97;;
55663;SDS011;41540;57.880;12.164;2022-12-29T15:16:20;14.57;;;4.65;;
55663;SDS011;41540;57.880;12.164;2022-12-29T15:26:21;17.10;;;5.80;;
55663;SDS011;41540;57.880;12.164;2022-12-29T15:36:25;32.80;;;7.27;;
55663;SDS011;41540;57.880;12.164;2022-12-29T15:46:26;22.65;;;7.35;;
55663;SDS011;41540;57.880;12.164;2022-12-29T15:56:30;22.23;;;5.32;;
55663;SDS011;41540;57.880;12.164;2022-12-29T16:06:35;13.10;;;3.22;;
55663;SDS011;41540;57.880;12.164;2022-12-29T16:16:36;11.15;;;3.42;;
55663;SDS011;41540;57.880;12.164;2022-12-29T16:26:38;10.65;;;3.72;;
55663;SDS011;41540;57.880;12.164;2022-12-29T16:36:55;16.30;;;3.63;;
55663;SDS011;41540;57.880;12.164;2022-12-29T16:57:10;30.50;;;6.00;;
55663;SDS011;41540;57.880;12.164;2022-12-29T17:07:17;26.08;;;4.70;;
55663;SDS011;41540;57.880;12.164;2022-12-29T17:17:19;14.13;;;4.22;;
55663;SDS011;41540;57.880;12.164;2022-12-29T17:27:31;17.08;;;4.50;;
55663;SDS011;41540;57.880;12.164;2022-12-29T17:37:33;9.75;;;3.55;;
55663;SDS011;41540;57.880;12.164;2022-12-29T17:47:34;19.23;;;6.28;;
55663;SDS011;41540;57.880;12.164;2022-12-29T17:57:34;19.05;;;5.05;;
55663;SDS011;41540;57.880;12.164;2022-12-29T18:07:34;13.25;;;4.50;;
55663;SDS011;41540;57.880;12.164;2022-12-29T18:17:34;8.77;;;3.20;;
55663;SDS011;41540;57.880;12.164;2022-12-29T18:27:35;16.33;;;4.07;;
55663;SDS011;41540;57.880;12.164;2022-12-29T18:37:35;26.13;;;3.78;;
55663;SDS011;41540;57.880;12.164;2022-12-29T18:47:35;13.93;;;3.08;;
55663;SDS011;41540;57.880;12.164;2022-12-29T18:57:35;30.05;;;5.88;;
55663;SDS011;41540;57.880;12.164;2022-12-29T19:07:36;26.02;;;4.55;;
55663;SDS011;41540;57.880;12.164;2022-12-29T19:17:36;5.30;;;2.88;;
55663;SDS011;41540;57.880;12.164;2022-12-29T19:27:36;17.30;;;5.90;;
55663;SDS011;41540;57.880;12.164;2022-12-29T19:37:36;13.43;;;4.30;;
55663;SDS011;41540;57.880;12.164;2022-12-29T19:47:39;11.85;;;4.82;;
55663;SDS011;41540;57.880;12.164;2022-12-29T19:57:39;22.45;;;4.80;;
55663;SDS011;41540;57.880;12.164;2022-12-29T20:07:39;12.23;;;2.70;;
55663;SDS011;41540;57.880;12.164;2022-12-29T20:17:39;7.25;;;3.08;;
55663;SDS011;41540;57.880;12.164;2022-12-29T20:27:40;20.65;;;4.18;;
55663;SDS011;41540;57.880;12.164;2022-12-29T20:37:40;23.40;;;4.25;;
55663;SDS011;41540;57.880;12.164;2022-12-29T20:47:40;7.40;;;2.72;;
55663;SDS011;41540;57.880;12.164;2022-12-29T20:57:41;8.35;;;1.88;;
55663;SDS011;41540;57.880;12.164;2022-12-29T21:07:41;10.32;;;3.53;;
55663;SDS011;41540;57.880;12.164;2022-12-29T21:17:42;9.35;;;2.55;;
55663;SDS011;41540;57.880;12.164;2022-12-29T21:27:42;7.90;;;2.58;;
55663;SDS011;41540;57.880;12.164;2022-12-29T21:37:45;14.05;;;2.78;;
55663;SDS011;41540;57.880;12.164;2022-12-29T21:47:46;8.70;;;1.83;;
55663;SDS011;41540;57.880;12.164;2022-12-29T21:58:05;8.35;;;2.42;;
55663;SDS011;41540;57.880;12.164;2022-12-29T22:08:24;18.88;;;4.57;;
55663;SDS011;41540;57.880;12.164;2022-12-29T22:18:43;10.45;;;2.55;;
55663;SDS011;41540;57.880;12.164;2022-12-29T22:28:43;14.98;;;4.07;;
55663;SDS011;41540;57.880;12.164;2022-12-29T22:38:45;17.58;;;4.18;;
55663;SDS011;41540;57.880;12.164;2022-12-29T22:48:45;17.08;;;5.93;;
55663;SDS011;41540;57.880;12.164;2022-12-29T22:58:46;28.55;;;3.83;;
55663;SDS011;41540;57.880;12.164;2022-12-29T23:08:46;21.90;;;7.57;;
55663;SDS011;41540;57.880;12.164;2022-12-29T23:18:48;26.88;;;6.32;;
55663;SDS011;41540;57.880;12.164;2022-12-29T23:28:48;41.35;;;11.45;;
55663;SDS011;41540;57.880;12.164;2022-12-29T23:38:49;25.58;;;5.70;;
55663;SDS011;41540;57.880;12.164;2022-12-29T23:48:49;26.85;;;6.63;;
55663;SDS011;41540;57.880;12.164;2022-12-29T23:58:50;26.43;;;7.20;;
